ルレオ の空港の天気 - METARとTAF

Lulea / Kallax ( ESPA / LLA ) - スウェーデン ルレオ
飛行場実況気象(Metar)
観測時間04/21 18:50 CEST (04/21 16:50 UTC)
風向・風速西南西 3m/s
視程10km以上
天気現象
なし
気温7℃
湿度76%
気圧1016hPa
METARESPA 211650Z 24005KT 210V270 CAVOK 07/03 Q1016
過去の天気等 Google飛行場航空写真 Wunderground天気予報

過去48時間のMETAR

飛行場予報(TAF)
発表時間: 4/21 16:30 CEST (4/21 14:30 UTC)
予報対象時間: 21日17時 CEST ~ 22日1時 CEST
風向・風速南南西 3m/s
視程10km以上
なし
TAF ESPA 211430Z 2115/2123 20006KT CAVOK